Time;durP1;ratioP1;P1;durP2;ratioP2;P2;SDS_P1;SDS_P2;PMS_P1;PMS_P2;Temp;Humidity;BMP_temperature;BMP_pressure;BME280_temperature;BME280_humidity;BME280_pressure;Samples;Min_cycle;Max_cycle;Signal;HPM_P1;HPM_P2
2023/05/23 06:38:23;;;;;;;;;13.75;13.00;;;;;19.51;56.66;101813.50;5069974;27;45545;-73
2023/05/23 06:40:48;;;;;;;;;13.50;11.75;;;;;19.65;56.45;101814.28;5069226;28;45482;-76
2023/05/23 06:43:13;;;;;;;;;8.25;8.25;;;;;19.79;56.81;101808.72;5067151;27;45745;-76
2023/05/23 06:45:39;;;;;;;;;10.75;10.00;;;;;20.03;56.39;101818.63;5058035;28;45407;-72
2023/05/23 06:48:04;;;;;;;;;8.33;8.33;;;;;20.21;56.32;101815.44;5067920;28;46133;-72
2023/05/23 06:50:30;;;;;;;;;9.25;9.25;;;;;20.39;56.07;101821.22;5063272;27;45485;-71
2023/05/23 06:52:55;;;;;;;;;10.67;9.67;;;;;20.54;55.82;101814.63;5056791;28;45505;-72
2023/05/23 06:55:21;;;;;;;;;13.33;9.33;;;;;20.74;55.42;101827.47;5057025;28;49920;-72
2023/05/23 06:57:49;;;;;;;;;12.00;11.33;;;;;20.87;54.67;101830.94;5063674;28;45373;-72
2023/05/23 07:00:15;;;;;;;;;9.33;9.33;;;;;21.01;54.64;101843.31;5066089;27;45397;-72
2023/05/23 07:02:40;;;;;;;;;10.67;9.00;;;;;21.15;53.97;101838.63;5055669;28;45350;-72
2023/05/23 07:05:06;;;;;;;;;11.67;9.00;;;;;21.22;54.05;101834.44;5068115;28;45452;-72
2023/05/23 07:07:31;;;;;;;;;12.33;11.33;;;;;21.36;53.88;101843.22;5052678;27;46442;-73
2023/05/23 07:09:56;;;;;;;;;13.00;11.33;;;;;21.44;53.44;101843.44;5064328;28;45724;-72
2023/05/23 07:12:21;;;;;;;;;12.67;12.00;;;;;21.52;53.29;101851.78;5063363;28;45636;-72
2023/05/23 07:14:47;;;;;;;;;9.67;9.67;;;;;21.62;53.31;101859.13;5057035;28;45724;-72
2023/05/23 07:17:12;;;;;;;;;10.50;10.00;;;;;21.69;52.79;101852.19;5054815;28;46364;-71
2023/05/23 07:19:37;;;;;;;;;15.75;14.00;;;;;21.74;53.19;101854.56;5058421;28;45433;-73
2023/05/23 07:22:03;;;;;;;;;8.33;8.33;;;;;21.80;52.49;101862.13;5058995;28;45717;-74
2023/05/23 07:24:28;;;;;;;;;7.67;7.67;;;;;21.87;52.65;101866.06;5067185;27;45450;-74
2023/05/23 07:26:53;;;;;;;;;8.33;8.00;;;;;21.92;52.78;101861.13;5052205;28;59960;-71
2023/05/23 07:29:19;;;;;;;;;14.33;10.67;;;;;21.96;52.52;101864.41;5063790;27;45340;-76
2023/05/23 07:31:44;;;;;;;;;12.33;10.00;;;;;22.02;52.32;101863.03;5072655;27;45502;-77
2023/05/23 07:34:10;;;;;;;;;10.33;9.67;;;;;22.07;52.10;101869.72;5081066;28;45453;-76
2023/05/23 07:36:36;;;;;;;;;11.67;8.33;;;;;22.13;52.01;101867.50;5062814;27;45403;-76
2023/05/23 07:39:02;;;;;;;;;13.33;9.00;;;;;22.14;51.81;101872.78;5089052;27;45427;-77
2023/05/23 07:41:28;;;;;;;;;8.67;8.67;;;;;22.14;51.90;101872.78;5088607;27;45449;-76
2023/05/23 07:43:53;;;;;;;;;7.67;7.67;;;;;22.18;51.42;101881.47;5084314;27;45417;-72
2023/05/23 07:46:18;;;;;;;;;13.00;11.00;;;;;22.19;51.79;101875.09;5078628;27;46339;-72
2023/05/23 07:48:44;;;;;;;;;10.00;10.00;;;;;22.20;51.68;101876.81;5069652;27;45816;-74
2023/05/23 07:51:09;;;;;;;;;14.00;11.00;;;;;22.21;51.54;101875.81;5056921;28;45517;-75
2023/05/23 07:53:38;;;;;;;;;10.67;9.67;;;;;22.22;51.54;101864.88;5075165;28;45567;-74
2023/05/23 07:56:04;;;;;;;;;10.00;9.00;;;;;22.24;51.12;101872.84;5056418;28;45784;-74
2023/05/23 07:58:30;;;;;;;;;8.00;8.00;;;;;22.27;51.43;101874.44;5065599;28;45744;-74
2023/05/23 08:00:56;;;;;;;;;8.33;6.33;;;;;22.28;51.22;101874.31;5071424;27;45403;-74
2023/05/23 08:03:22;;;;;;;;;8.33;7.33;;;;;22.29;51.35;101869.72;5056679;28;45535;-74
2023/05/23 08:05:47;;;;;;;;;10.67;9.00;;;;;22.34;51.25;101879.16;5053016;28;46514;-71
2023/05/23 08:08:12;;;;;;;;;10.33;8.33;;;;;22.33;51.30;101882.00;5066143;28;45411;-71
2023/05/23 08:10:38;;;;;;;;;10.67;9.67;;;;;22.35;51.27;101878.19;5056488;28;46548;-76
2023/05/23 08:13:05;;;;;;;;;8.67;8.33;;;;;22.38;51.00;101877.06;5074594;28;45570;-76
2023/05/23 08:15:32;;;;;;;;;7.00;7.00;;;;;22.42;51.13;101891.16;5065708;27;46074;-76
2023/05/23 08:17:57;;;;;;;;;7.67;7.00;;;;;22.45;51.09;101889.06;5071884;28;45494;-78
2023/05/23 08:20:29;;;;;;;;;14.00;8.00;;;;;22.49;50.98;101878.84;5070579;28;45479;-77
2023/05/23 08:22:58;;;;;;;;;6.33;4.00;;;;;22.54;51.15;101884.72;5074523;28;45337;-79
2023/05/23 08:25:23;;;;;;;;;8.33;8.33;;;;;22.56;50.92;101890.84;5061192;28;45696;-78
2023/05/23 08:27:50;;;;;;;;;8.33;7.67;;;;;22.56;51.22;101888.13;5061394;28;45645;-78
2023/05/23 08:30:15;;;;;;;;;7.33;7.33;;;;;22.59;51.21;101887.88;5071362;28;45543;-77
2023/05/23 08:32:41;;;;;;;;;8.67;7.00;;;;;22.62;50.94;101884.03;5063695;28;45569;-77
2023/05/23 08:35:07;;;;;;;;;9.33;8.00;;;;;22.62;51.15;101886.75;5067410;28;45406;-77
2023/05/23 08:37:32;;;;;;;;;9.00;7.00;;;;;22.66;51.26;101895.44;5073858;28;45498;-78
2023/05/23 08:39:57;;;;;;;;;5.33;5.33;;;;;22.66;51.22;101893.63;5068231;28;45427;-79
2023/05/23 08:42:23;;;;;;;;;7.67;6.00;;;;;22.69;51.16;101901.47;5074218;28;45614;-78
2023/05/23 08:44:48;;;;;;;;;7.67;7.33;;;;;22.73;51.26;101899.34;5072090;28;45827;-77
2023/05/23 08:47:16;;;;;;;;;6.33;6.33;;;;;22.74;51.04;101899.22;5055524;28;45383;-76
2023/05/23 08:49:43;;;;;;;;;9.00;9.00;;;;;22.75;50.94;101902.75;5071080;28;45491;-78
2023/05/23 08:52:12;;;;;;;;;7.33;7.33;;;;;22.76;51.27;101910.75;5074965;28;45544;-81
2023/05/23 08:54:39;;;;;;;;;7.33;7.33;;;;;22.80;51.08;101911.34;5061788;28;45378;-80
2023/05/23 08:57:05;;;;;;;;;8.00;7.67;;;;;22.83;51.52;101902.06;5069837;28;45575;-79
2023/05/23 08:59:33;;;;;;;;;8.33;7.67;;;;;22.85;51.38;101909.06;5071666;28;45350;-80
2023/05/23 09:01:59;;;;;;;;;7.00;7.00;;;;;22.86;51.08;101909.94;5052656;28;45807;-76
2023/05/23 09:04:24;;;;;;;;;7.67;7.67;;;;;22.89;51.00;101907.81;5073698;28;45537;-76
2023/05/23 09:06:50;;;;;;;;;10.00;9.00;;;;;22.90;51.39;101901.41;5072280;28;45373;-75
2023/05/23 09:09:16;;;;;;;;;8.00;8.00;;;;;22.92;51.23;101909.38;5072426;28;45360;-76
2023/05/23 09:11:44;;;;;;;;;10.00;8.33;;;;;22.92;51.32;101903.13;5040819;28;45584;-74
2023/05/23 09:14:10;;;;;;;;;9.00;7.67;;;;;22.94;51.49;101907.41;5058683;28;46133;-75
2023/05/23 09:16:35;;;;;;;;;7.00;7.00;;;;;22.95;51.33;101914.53;5058666;28;45428;-76
2023/05/23 09:19:10;;;;;;;;;8.00;7.00;;;;;22.97;51.43;101909.84;5073261;28;50739;-75
2023/05/23 09:21:35;;;;;;;;;8.67;8.00;;;;;22.97;51.27;101906.28;5071689;28;45477;-75
2023/05/23 09:24:00;;;;;;;;;10.33;10.33;;;;;22.98;50.25;101913.41;5071725;28;45511;-76
2023/05/23 09:26:26;;;;;;;;;7.33;6.67;;;;;23.00;49.91;101911.41;5072440;28;48519;-79
2023/05/23 09:28:56;;;;;;;;;9.00;9.00;;;;;22.93;49.87;101913.81;5067123;28;45437;-75
2023/05/23 09:31:27;;;;;;;;;10.33;8.00;;;;;22.94;50.06;101911.97;5073445;28;45460;-75
2023/05/23 09:33:52;;;;;;;;;5.00;5.00;;;;;22.89;50.03;101905.09;5055312;28;46899;-75
2023/05/23 09:36:18;;;;;;;;;9.00;8.00;;;;;22.91;50.21;101915.81;5072730;28;45336;-75
2023/05/23 09:38:45;;;;;;;;;7.00;7.00;;;;;22.88;50.23;101925.06;5073487;28;45388;-75
2023/05/23 09:41:12;;;;;;;;;11.33;9.00;;;;;22.84;50.13;101918.19;5054824;28;45497;-76
2023/05/23 09:43:52;;;;;;;;;11.33;7.67;;;;;22.85;49.84;101919.91;5064174;28;46328;-75
2023/05/23 09:46:19;;;;;;;;;7.33;7.33;;;;;22.85;49.75;101921.78;5070046;28;45514;-75
2023/05/23 09:48:50;;;;;;;;;10.00;8.33;;;;;22.82;49.69;101919.31;5059155;28;45487;-76
2023/05/23 09:51:19;;;;;;;;;11.33;8.00;;;;;22.81;49.80;101920.31;5056294;28;45344;-76
2023/05/23 09:53:45;;;;;;;;;9.00;9.00;;;;;22.79;49.68;101915.03;5063289;28;45729;-75
2023/05/23 09:56:10;;;;;;;;;9.00;9.00;;;;;22.80;49.72;101922.16;5045455;28;45435;-75
2023/05/23 09:58:37;;;;;;;;;8.33;7.00;;;;;22.80;49.73;101913.19;5054828;28;45430;-71
2023/05/23 10:01:08;;;;;;;;;7.33;7.00;;;;;22.80;49.77;101914.03;5091652;28;45531;-76
2023/05/23 10:03:39;;;;;;;;;7.00;7.00;;;;;22.81;49.85;101923.03;5082377;28;45544;-76
2023/05/23 10:06:11;;;;;;;;;11.67;11.00;;;;;22.81;49.98;101918.44;5071514;28;45451;-75
2023/05/23 10:08:43;;;;;;;;;8.67;6.33;;;;;22.77;50.17;101911.63;5073043;28;45367;-75
2023/05/23 10:11:15;;;;;;;;;8.67;8.67;;;;;22.85;49.96;101919.06;5072517;27;45380;-74
2023/05/23 10:13:45;;;;;;;;;8.33;8.33;;;;;22.86;49.94;101920.78;5071113;27;45925;-74
2023/05/23 10:16:37;;;;;;;;;10.00;9.00;;;;;22.87;50.42;101928.75;5052399;28;45574;-74
2023/05/23 10:19:24;;;;;;;;;8.00;8.00;;;;;22.87;50.33;101920.63;5059727;28;45426;-73
2023/05/23 10:21:58;;;;;;;;;9.33;6.67;;;;;22.90;50.51;101919.50;5062897;28;45504;-73
2023/05/23 10:24:24;;;;;;;;;7.67;7.67;;;;;22.90;50.56;101919.50;5066107;28;46168;-73
2023/05/23 10:26:50;;;;;;;;;8.00;7.00;;;;;22.93;50.32;101919.22;5072282;28;45495;-75
2023/05/23 10:29:16;;;;;;;;;11.33;10.00;;;;;22.94;50.01;101931.78;5071071;28;45683;-73
2023/05/23 10:31:42;;;;;;;;;8.33;8.33;;;;;22.94;50.64;101926.38;5072061;28;47766;-74
2023/05/23 10:34:17;;;;;;;;;11.33;9.67;;;;;22.96;50.75;101927.06;5069374;28;46538;-76
2023/05/23 10:36:53;;;;;;;;;8.33;6.33;;;;;22.97;50.24;101928.78;5065423;28;45574;-76
2023/05/23 10:39:32;;;;;;;;;10.67;9.67;;;;;23.01;50.42;101923.97;5070572;28;45479;-75
2023/05/23 10:42:03;;;;;;;;;9.33;8.67;;;;;23.02;50.47;101921.09;5072579;27;45494;-75
2023/05/23 10:44:29;;;;;;;;;9.67;7.67;;;;;23.05;50.52;101924.56;5071645;28;46363;-74
2023/05/23 10:47:03;;;;;;;;;6.67;6.67;;;;;23.06;50.58;101913.59;5072385;28;45398;-74
2023/05/23 10:49:42;;;;;;;;;7.33;7.33;;;;;23.09;50.51;101921.41;5054205;28;45365;-74
2023/05/23 10:52:10;;;;;;;;;8.67;8.67;;;;;23.08;50.38;101919.72;5072591;28;45410;-75
2023/05/23 10:54:51;;;;;;;;;9.67;9.67;;;;;23.13;50.83;101922.03;5066713;28;45475;-74
2023/05/23 10:57:18;;;;;;;;;7.67;7.67;;;;;23.11;50.81;101915.88;5066420;27;45506;-73
2023/05/23 10:59:45;;;;;;;;;10.00;9.33;;;;;23.11;50.85;101919.44;5072415;28;45640;-74
2023/05/23 11:02:15;;;;;;;;;9.00;9.00;;;;;23.13;50.65;101914.75;5072142;28;45478;-73
2023/05/23 11:04:41;;;;;;;;;7.67;6.33;;;;;23.17;50.89;101920.72;5061848;28;45660;-74
2023/05/23 11:07:32;;;;;;;;;8.00;8.00;;;;;23.16;50.15;101917.19;5058999;28;45467;-74
2023/05/23 11:10:12;;;;;;;;;10.00;7.67;;;;;23.20;49.92;101925.00;5066898;28;45448;-74
2023/05/23 11:12:43;;;;;;;;;13.67;9.67;;;;;23.20;50.21;101941.25;5048524;28;45760;-73
2023/05/23 11:15:17;;;;;;;;;8.67;7.33;;;;;23.18;50.33;101922.47;5058691;28;45551;-73
2023/05/23 11:18:08;;;;;;;;;7.67;7.33;;;;;23.16;50.15;101925.31;5065905;28;45464;-75
2023/05/23 11:20:36;;;;;;;;;12.33;11.33;;;;;23.17;49.36;101926.16;5063761;28;45503;-73
2023/05/23 11:23:06;;;;;;;;;8.67;8.67;;;;;23.17;49.37;101923.44;5071933;28;45425;-73
2023/05/23 11:25:42;;;;;;;;;9.33;8.00;;;;;23.15;49.19;101926.31;5075507;28;46436;-73
2023/05/23 11:28:08;;;;;;;;;6.00;6.00;;;;;23.13;48.87;101914.75;5074393;27;45413;-73
2023/05/23 11:30:36;;;;;;;;;10.67;8.33;;;;;23.11;48.95;101910.47;5076075;28;45462;-73
2023/05/23 11:33:07;;;;;;;;;7.00;7.00;;;;;23.11;48.64;101924.88;5073841;28;45395;-74
2023/05/23 11:35:33;;;;;;;;;9.67;9.67;;;;;23.09;49.10;101916.00;5074969;28;46265;-73
2023/05/23 11:37:58;;;;;;;;;9.67;9.33;;;;;23.07;49.02;101918.00;5048205;28;45586;-71
2023/05/23 11:40:36;;;;;;;;;12.67;11.00;;;;;23.06;49.14;101915.44;5046829;28;45867;-72
2023/05/23 11:43:04;;;;;;;;;12.33;11.00;;;;;23.03;48.69;101908.44;5048616;28;45635;-71
2023/05/23 11:45:33;;;;;;;;;11.00;9.00;;;;;23.07;48.90;101917.13;5038099;28;46499;-73
2023/05/23 11:48:04;;;;;;;;;11.67;9.00;;;;;23.06;48.76;101918.13;5050587;28;45583;-72
2023/05/23 11:50:29;;;;;;;;;6.67;5.00;;;;;23.06;48.85;101921.72;5054294;28;45489;-71
2023/05/23 11:52:55;;;;;;;;;8.33;7.33;;;;;23.05;49.01;101911.84;5044076;28;46667;-71
2023/05/23 11:55:22;;;;;;;;;8.00;6.67;;;;;23.08;49.02;101919.72;5042181;28;46508;-69
2023/05/23 11:57:48;;;;;;;;;10.33;10.00;;;;;23.07;48.84;101925.25;5051465;28;45442;-69
2023/05/23 12:00:15;;;;;;;;;8.00;8.00;;;;;23.09;48.60;101917.88;5054727;28;45687;-71
2023/05/23 12:02:41;;;;;;;;;11.33;9.67;;;;;23.09;48.78;101928.72;5049447;28;45614;-71
2023/05/23 12:05:13;;;;;;;;;8.00;7.67;;;;;23.06;48.71;101920.84;5046894;28;45608;-70
2023/05/23 12:07:46;;;;;;;;;11.67;10.00;;;;;23.11;48.70;101910.47;5054216;28;45430;-70
2023/05/23 12:10:14;;;;;;;;;11.67;9.00;;;;;23.11;48.52;101921.28;5044408;28;45584;-70
2023/05/23 12:12:41;;;;;;;;;10.00;10.00;;;;;23.09;48.81;101915.16;5049290;28;45899;-71
2023/05/23 12:15:08;;;;;;;;;10.00;10.00;;;;;23.10;48.54;101927.72;5042248;28;47266;-71
2023/05/23 12:17:35;;;;;;;;;9.00;7.33;;;;;23.10;48.75;101927.72;5054097;28;45470;-73
2023/05/23 12:20:00;;;;;;;;;6.67;6.00;;;;;23.09;48.63;101929.53;5060284;28;45439;-72
2023/05/23 12:22:27;;;;;;;;;9.67;8.00;;;;;23.10;48.57;101928.53;5038443;28;45499;-72
2023/05/23 12:24:54;;;;;;;;;10.00;9.33;;;;;23.09;48.63;101924.13;5048476;28;45843;-72
2023/05/23 12:27:27;;;;;;;;;7.67;7.33;;;;;23.12;48.47;101923.00;5052034;28;45426;-72
2023/05/23 12:30:13;;;;;;;;;9.00;8.33;;;;;23.12;48.48;101928.41;5054146;28;45547;-72
2023/05/23 12:32:40;;;;;;;;;10.33;8.67;;;;;23.09;48.57;101916.00;5050546;28;45438;-71
2023/05/23 12:35:07;;;;;;;;;10.00;8.67;;;;;23.10;48.51;101915.00;5050104;28;45493;-71
2023/05/23 12:37:33;;;;;;;;;9.00;8.00;;;;;23.11;48.44;101929.41;5051383;28;46276;-70
2023/05/23 12:40:09;;;;;;;;;9.33;8.00;;;;;23.14;48.47;101926.44;5053076;28;45562;-70
2023/05/23 12:42:44;;;;;;;;;7.00;7.00;;;;;23.14;48.60;101921.88;5049301;28;45569;-72
2023/05/23 12:45:13;;;;;;;;;9.00;8.33;;;;;23.14;48.48;101908.31;5053964;28;45949;-71
2023/05/23 12:47:38;;;;;;;;;10.00;9.00;;;;;23.14;48.35;101900.19;5041267;28;45371;-71
2023/05/23 12:50:04;;;;;;;;;6.33;6.33;;;;;23.18;48.50;101898.09;5049698;28;54157;-72
2023/05/23 12:52:30;;;;;;;;;5.67;5.67;;;;;23.21;48.44;101902.38;5053474;28;45531;-70
2023/05/23 12:54:55;;;;;;;;;9.33;8.67;;;;;23.20;48.32;101896.09;5044405;28;45396;-72
2023/05/23 12:57:21;;;;;;;;;9.00;8.00;;;;;23.21;48.38;101889.66;5045726;28;52684;-72
2023/05/23 12:59:46;;;;;;;;;8.00;8.00;;;;;23.22;48.35;101893.25;5052393;28;45528;-72
2023/05/23 13:02:11;;;;;;;;;6.33;6.33;;;;;23.23;48.18;101889.53;5048812;28;54425;-71
2023/05/23 13:04:37;;;;;;;;;8.33;7.00;;;;;23.21;48.10;101889.66;5040946;28;60913;-73
2023/05/23 13:07:02;;;;;;;;;10.00;7.00;;;;;23.21;48.54;101886.97;5049801;28;61725;-71
2023/05/23 13:09:27;;;;;;;;;8.00;6.67;;;;;23.20;48.10;101877.13;5053124;28;45520;-71
2023/05/23 13:11:53;;;;;;;;;8.00;8.00;;;;;23.22;48.30;101868.88;5049532;28;46963;-71
2023/05/23 13:14:19;;;;;;;;;8.33;8.00;;;;;23.23;47.82;101879.56;5051772;28;46794;-71
2023/05/23 13:16:44;;;;;;;;;8.00;8.00;;;;;23.25;47.92;101876.69;5044035;28;45476;-72
2023/05/23 13:19:10;;;;;;;;;9.00;6.33;;;;;23.27;48.02;101875.59;5041478;28;45683;-73
2023/05/23 13:21:35;;;;;;;;;8.33;8.33;;;;;23.28;47.86;101871.00;5050728;28;45431;-71
2023/05/23 13:24:00;;;;;;;;;13.00;11.00;;;;;23.29;48.11;101868.19;5040113;28;46185;-71
2023/05/23 13:26:26;;;;;;;;;8.33;8.33;;;;;23.30;47.78;101866.34;5045719;28;49175;-71
2023/05/23 13:28:51;;;;;;;;;7.00;7.00;;;;;23.27;47.78;101862.06;5052863;28;45328;-70
2023/05/23 13:31:16;;;;;;;;;6.67;6.67;;;;;23.34;47.64;101872.34;5049440;28;45513;-71
2023/05/23 13:33:42;;;;;;;;;11.33;10.00;;;;;23.37;47.59;101869.34;5050102;28;46302;-72
2023/05/23 13:36:07;;;;;;;;;10.00;10.00;;;;;23.32;47.75;101856.19;5050470;28;45452;-73
2023/05/23 13:38:32;;;;;;;;;10.33;8.67;;;;;23.35;47.75;101864.09;5068498;28;53650;-73
2023/05/23 13:40:58;;;;;;;;;13.00;11.00;;;;;23.38;48.20;101865.66;5072033;28;46286;-73
2023/05/23 13:43:23;;;;;;;;;10.00;8.33;;;;;23.38;48.00;101861.06;5039055;28;47003;-72
2023/05/23 13:45:48;;;;;;;;;10.00;10.00;;;;;23.39;48.30;101849.28;5072420;28;45404;-72
2023/05/23 13:48:14;;;;;;;;;10.67;10.00;;;;;23.43;48.26;101860.69;5070943;28;45803;-72
2023/05/23 13:50:39;;;;;;;;;9.33;8.00;;;;;23.45;48.19;101844.28;5048413;28;45752;-71
2023/05/23 13:53:13;;;;;;;;;10.00;9.00;;;;;23.43;47.65;101833.59;5071826;27;46877;-71
2023/05/23 13:55:38;;;;;;;;;14.67;11.00;;;;;23.49;48.28;101846.56;5067982;28;45679;-70
2023/05/23 13:58:04;;;;;;;;;9.67;9.67;;;;;23.51;48.58;101844.53;5069106;27;45679;-72
2023/05/23 14:00:29;;;;;;;;;8.67;8.67;;;;;23.55;48.65;101840.56;5072738;28;45506;-72
2023/05/23 14:02:55;;;;;;;;;10.33;8.67;;;;;23.54;48.63;101833.44;5071157;28;46219;-73
2023/05/23 14:05:21;;;;;;;;;10.00;8.67;;;;;23.59;48.59;101843.88;5064616;28;45431;-73
2023/05/23 14:07:46;;;;;;;;;9.33;8.00;;;;;23.58;48.49;101844.00;5072767;28;45457;-72
2023/05/23 14:10:13;;;;;;;;;9.67;9.67;;;;;23.61;48.64;101835.56;5069018;28;45588;-71
2023/05/23 14:12:38;;;;;;;;;10.67;9.00;;;;;23.62;48.53;101832.72;5071404;28;46656;-73
2023/05/23 14:15:04;;;;;;;;;9.00;8.33;;;;;23.66;48.63;101833.28;5069001;27;45412;-72
2023/05/23 14:17:29;;;;;;;;;10.00;9.00;;;;;23.67;48.72;101835.00;5063020;28;45452;-71
2023/05/23 14:19:54;;;;;;;;;10.33;9.00;;;;;23.70;49.03;101829.28;5072619;28;45352;-71
2023/05/23 14:22:20;;;;;;;;;15.33;10.67;;;;;23.64;48.05;101819.03;5069302;28;45789;-69
2023/05/23 14:24:46;;;;;;;;;14.67;12.00;;;;;23.74;48.48;101833.44;5045491;27;45820;-72
2023/05/23 14:27:11;;;;;;;;;10.67;10.00;;;;;23.73;48.50;101820.88;5065689;28;45880;-74
2023/05/23 14:29:37;;;;;;;;;12.00;10.00;;;;;23.79;48.58;101828.44;5065681;28;45586;-73
2023/05/23 14:32:02;;;;;;;;;9.00;9.00;;;;;23.79;48.75;101824.88;5061928;28;45483;-72
2023/05/23 14:34:28;;;;;;;;;9.00;9.00;;;;;23.82;48.81;101824.56;5072449;28;45504;-75
2023/05/23 14:36:54;;;;;;;;;10.67;9.00;;;;;23.81;48.75;101823.72;5051560;28;45613;-74
2023/05/23 14:39:20;;;;;;;;;10.33;9.67;;;;;23.84;48.79;101829.84;5062758;28;45494;-72
2023/05/23 14:41:45;;;;;;;;;12.00;10.67;;;;;23.83;48.52;101834.44;5071949;28;46249;-71
2023/05/23 14:44:11;;;;;;;;;9.00;8.00;;;;;23.87;48.81;101829.56;5064821;28;45404;-74
2023/05/23 14:46:36;;;;;;;;;10.67;10.00;;;;;23.88;48.90;101829.44;5072777;28;45468;-71
2023/05/23 14:49:01;;;;;;;;;9.67;9.67;;;;;23.87;49.15;101822.28;5071933;28;45515;-72
2023/05/23 14:51:27;;;;;;;;;11.00;9.00;;;;;23.84;48.96;101821.72;5049786;28;47311;-74
2023/05/23 14:53:52;;;;;;;;;6.67;6.00;;;;;23.88;49.09;101829.44;5068132;28;45852;-74
2023/05/23 14:56:17;;;;;;;;;12.00;10.33;;;;;23.90;49.12;101831.97;5062334;28;46546;-74
2023/05/23 14:58:44;;;;;;;;;12.00;9.00;;;;;23.93;48.89;101835.28;5074546;28;45678;-74
2023/05/23 15:01:11;;;;;;;;;10.00;10.00;;;;;23.94;49.26;101834.28;5073383;28;46633;-75
2023/05/23 15:03:37;;;;;;;;;15.33;9.67;;;;;23.98;49.04;101823.97;5075869;28;45458;-74
2023/05/23 15:06:04;;;;;;;;;10.33;9.67;;;;;23.97;49.24;101825.00;5068010;28;45446;-74
2023/05/23 15:08:30;;;;;;;;;9.67;9.67;;;;;23.98;49.45;101829.41;5074274;28;45421;-75
2023/05/23 15:10:56;;;;;;;;;9.67;8.00;;;;;24.01;49.37;101830.97;5073708;28;46212;-74
2023/05/23 15:13:21;;;;;;;;;12.00;8.00;;;;;24.00;49.31;101821.13;5075330;27;45572;-73
2023/05/23 15:15:47;;;;;;;;;10.33;8.67;;;;;23.99;49.69;101820.25;5074710;28;45354;-72
2023/05/23 15:18:13;;;;;;;;;8.00;7.33;;;;;24.02;49.27;101822.69;5066115;28;45522;-72
2023/05/23 15:20:38;;;;;;;;;10.33;8.33;;;;;24.06;49.54;101828.69;5074581;28;46094;-72
2023/05/23 15:23:04;;;;;;;;;11.67;9.00;;;;;24.05;49.44;101832.41;5071898;28;45591;-72
2023/05/23 15:25:29;;;;;;;;;11.67;9.33;;;;;24.02;49.53;101828.13;5074769;28;45348;-71
2023/05/23 15:27:55;;;;;;;;;8.00;7.33;;;;;24.05;49.55;101832.41;5072580;28;45449;-71
2023/05/23 15:30:21;;;;;;;;;9.00;8.00;;;;;24.05;49.53;101825.13;5072530;27;45438;-71
2023/05/23 15:32:47;;;;;;;;;8.33;8.00;;;;;24.06;48.94;101829.53;5057255;28;45382;-73
2023/05/23 15:35:12;;;;;;;;;10.00;10.00;;;;;24.06;47.21;101823.25;5073189;28;45404;-73
2023/05/23 15:37:39;;;;;;;;;13.67;12.33;;;;;24.02;45.92;101817.28;5066165;28;45518;-74
2023/05/23 15:40:05;;;;;;;;;10.33;10.33;;;;;23.96;45.56;101826.00;5072152;27;46541;-74
2023/05/23 15:42:30;;;;;;;;;16.00;12.00;;;;;23.92;45.03;101822.69;5075513;28;45641;-74
2023/05/23 15:44:56;;;;;;;;;12.33;12.33;;;;;23.89;44.71;101814.00;5073600;28;45517;-74
2023/05/23 15:47:21;;;;;;;;;14.33;10.00;;;;;23.82;44.33;101820.03;5056905;28;45446;-74
2023/05/23 15:49:46;;;;;;;;;11.00;10.00;;;;;23.79;43.85;101823.00;5056294;28;47234;-73
2023/05/23 15:52:12;;;;;;;;;11.33;11.33;;;;;23.73;43.38;101826.31;5059788;27;46423;-72
2023/05/23 15:54:37;;;;;;;;;12.00;12.00;;;;;23.69;43.33;101824.88;5066559;28;45651;-71
2023/05/23 15:57:04;;;;;;;;;10.00;10.00;;;;;23.65;44.52;101827.03;5068434;28;45853;-71
2023/05/23 15:59:32;;;;;;;;;9.33;9.00;;;;;23.62;45.48;101831.88;5074168;27;45463;-71
2023/05/23 16:01:58;;;;;;;;;11.00;10.00;;;;;23.57;45.29;101823.31;5066558;28;45478;-71
2023/05/23 16:04:23;;;;;;;;;10.00;10.00;;;;;23.61;45.53;101830.16;5074818;28;45760;-73
2023/05/23 16:06:49;;;;;;;;;8.67;8.67;;;;;23.57;45.38;101821.44;5056415;28;45504;-72
2023/05/23 16:09:14;;;;;;;;;9.00;9.00;;;;;23.57;45.21;101823.31;5071284;28;46603;-71
2023/05/23 16:11:40;;;;;;;;;9.67;8.67;;;;;23.53;45.19;101826.31;5065902;28;45506;-72
2023/05/23 16:14:05;;;;;;;;;7.00;7.00;;;;;23.53;46.12;101830.84;5060248;28;45541;-71
2023/05/23 16:16:31;;;;;;;;;15.00;13.67;;;;;23.52;45.92;101830.03;5065977;28;45509;-71
2023/05/23 16:18:56;;;;;;;;;10.00;10.00;;;;;23.50;45.55;101831.16;5067442;27;49222;-74
2023/05/23 16:21:21;;;;;;;;;14.33;11.67;;;;;23.50;45.37;101831.16;5067703;28;45447;-72
2023/05/23 16:23:47;;;;;;;;;12.33;11.00;;;;;23.48;43.36;101834.00;5062082;28;45651;-74
2023/05/23 16:26:13;;;;;;;;;10.33;9.00;;;;;23.37;42.72;101823.28;5051032;28;45850;-76
2023/05/23 16:28:41;;;;;;;;;9.33;9.33;;;;;23.26;42.11;101826.97;5064080;28;45559;-75
2023/05/23 16:31:06;;;;;;;;;13.00;11.33;;;;;23.12;42.06;101834.50;5073247;28;45709;-76
2023/05/23 16:33:31;;;;;;;;;7.67;7.00;;;;;23.00;41.82;101839.19;5072632;28;45407;-75
2023/05/23 16:35:57;;;;;;;;;10.67;9.67;;;;;22.86;41.71;101828.72;5051036;28;55729;-76
2023/05/23 16:38:22;;;;;;;;;11.00;10.33;;;;;22.65;41.24;101829.66;5067611;28;45593;-74
2023/05/23 16:40:47;;;;;;;;;10.00;8.33;;;;;22.57;42.11;101822.22;5072201;28;45468;-75
2023/05/23 16:43:13;;;;;;;;;8.67;7.67;;;;;22.44;41.61;101829.69;5073739;28;45565;-72
2023/05/23 16:45:38;;;;;;;;;6.00;4.67;;;;;22.31;42.00;101822.63;5067867;28;45798;-72
